sensor_id;sensor_type;location;lat;lon;timestamp;P1;durP1;ratioP1;P2;durP2;ratioP2
62149;SDS011;48134;53.586;10.610;2023-03-01T00:01:56;5.05;;;2.10;;
62149;SDS011;48134;53.586;10.610;2023-03-01T00:04:31;5.53;;;2.03;;
62149;SDS011;48134;53.586;10.610;2023-03-01T00:06:58;5.03;;;2.10;;
62149;SDS011;48134;53.586;10.610;2023-03-01T00:09:31;4.20;;;2.00;;
62149;SDS011;48134;53.586;10.610;2023-03-01T00:11:59;4.72;;;2.00;;
62149;SDS011;48134;53.586;10.610;2023-03-01T00:14:32;4.77;;;2.00;;
62149;SDS011;48134;53.586;10.610;2023-03-01T00:17:00;5.10;;;2.00;;
62149;SDS011;48134;53.586;10.610;2023-03-01T00:19:34;5.63;;;1.92;;
62149;SDS011;48134;53.586;10.610;2023-03-01T00:22:02;5.55;;;2.08;;
62149;SDS011;48134;53.586;10.610;2023-03-01T00:24:30;5.45;;;2.00;;
62149;SDS011;48134;53.586;10.610;2023-03-01T00:27:03;5.25;;;2.10;;
62149;SDS011;48134;53.586;10.610;2023-03-01T00:29:30;4.88;;;2.20;;
62149;SDS011;48134;53.586;10.610;2023-03-01T00:31:59;4.90;;;1.88;;
62149;SDS011;48134;53.586;10.610;2023-03-01T00:34:26;5.73;;;2.30;;
62149;SDS011;48134;53.586;10.610;2023-03-01T00:36:56;7.60;;;2.80;;
62149;SDS011;48134;53.586;10.610;2023-03-01T00:39:36;7.82;;;2.40;;
62149;SDS011;48134;53.586;10.610;2023-03-01T00:42:04;4.78;;;2.20;;
62149;SDS011;48134;53.586;10.610;2023-03-01T00:44:37;5.72;;;2.00;;
62149;SDS011;48134;53.586;10.610;2023-03-01T00:47:10;4.97;;;2.20;;
62149;SDS011;48134;53.586;10.610;2023-03-01T00:49:37;4.72;;;2.10;;
62149;SDS011;48134;53.586;10.610;2023-03-01T00:52:07;4.70;;;2.13;;
62149;SDS011;48134;53.586;10.610;2023-03-01T00:54:39;4.72;;;2.30;;
62149;SDS011;48134;53.586;10.610;2023-03-01T00:57:12;7.38;;;2.10;;
62149;SDS011;48134;53.586;10.610;2023-03-01T00:59:45;6.25;;;2.50;;
62149;SDS011;48134;53.586;10.610;2023-03-01T01:02:13;4.93;;;2.45;;
62149;SDS011;48134;53.586;10.610;2023-03-01T01:04:46;6.35;;;2.50;;
62149;SDS011;48134;53.586;10.610;2023-03-01T01:07:21;6.20;;;2.47;;
62149;SDS011;48134;53.586;10.610;2023-03-01T01:09:49;6.57;;;2.80;;
62149;SDS011;48134;53.586;10.610;2023-03-01T01:12:16;6.32;;;2.80;;
62149;SDS011;48134;53.586;10.610;2023-03-01T01:14:49;6.55;;;2.80;;
62149;SDS011;48134;53.586;10.610;2023-03-01T01:17:22;6.97;;;3.13;;
62149;SDS011;48134;53.586;10.610;2023-03-01T01:19:55;7.38;;;3.20;;
62149;SDS011;48134;53.586;10.610;2023-03-01T01:22:24;7.30;;;3.20;;
62149;SDS011;48134;53.586;10.610;2023-03-01T01:24:57;7.22;;;3.42;;
62149;SDS011;48134;53.586;10.610;2023-03-01T01:27:30;7.07;;;3.55;;
62149;SDS011;48134;53.586;10.610;2023-03-01T01:29:58;7.35;;;3.58;;
62149;SDS011;48134;53.586;10.610;2023-03-01T01:32:25;9.10;;;3.80;;
62149;SDS011;48134;53.586;10.610;2023-03-01T01:34:53;8.00;;;3.65;;
62149;SDS011;48134;53.586;10.610;2023-03-01T01:37:27;7.68;;;3.60;;
62149;SDS011;48134;53.586;10.610;2023-03-01T01:39:57;7.63;;;3.83;;
62149;SDS011;48134;53.586;10.610;2023-03-01T01:42:31;8.70;;;3.90;;
62149;SDS011;48134;53.586;10.610;2023-03-01T01:47:45;8.65;;;4.40;;
62149;SDS011;48134;53.586;10.610;2023-03-01T01:50:15;9.10;;;4.28;;
62149;SDS011;48134;53.586;10.610;2023-03-01T01:52:45;9.07;;;3.88;;
62149;SDS011;48134;53.586;10.610;2023-03-01T01:55:14;10.10;;;4.22;;
62149;SDS011;48134;53.586;10.610;2023-03-01T01:57:48;8.75;;;4.28;;
62149;SDS011;48134;53.586;10.610;2023-03-01T02:00:22;10.57;;;4.33;;
62149;SDS011;48134;53.586;10.610;2023-03-01T02:02:53;10.93;;;4.67;;
62149;SDS011;48134;53.586;10.610;2023-03-01T02:05:24;9.93;;;4.53;;
62149;SDS011;48134;53.586;10.610;2023-03-01T02:07:59;10.75;;;4.60;;
62149;SDS011;48134;53.586;10.610;2023-03-01T02:10:33;10.40;;;5.10;;
62149;SDS011;48134;53.586;10.610;2023-03-01T02:13:06;11.73;;;5.53;;
62149;SDS011;48134;53.586;10.610;2023-03-01T02:15:34;17.20;;;6.72;;
62149;SDS011;48134;53.586;10.610;2023-03-01T02:18:02;14.68;;;6.30;;
62149;SDS011;48134;53.586;10.610;2023-03-01T02:20:38;12.60;;;6.03;;
62149;SDS011;48134;53.586;10.610;2023-03-01T02:23:13;12.90;;;6.28;;
62149;SDS011;48134;53.586;10.610;2023-03-01T02:25:44;13.75;;;6.38;;
62149;SDS011;48134;53.586;10.610;2023-03-01T02:28:21;12.73;;;5.70;;
62149;SDS011;48134;53.586;10.610;2023-03-01T02:30:55;15.35;;;6.80;;
62149;SDS011;48134;53.586;10.610;2023-03-01T02:33:40;14.07;;;6.13;;
62149;SDS011;48134;53.586;10.610;2023-03-01T02:36:15;13.15;;;6.18;;
62149;SDS011;48134;53.586;10.610;2023-03-01T02:38:43;13.77;;;6.43;;
62149;SDS011;48134;53.586;10.610;2023-03-01T02:41:11;12.53;;;6.23;;
62149;SDS011;48134;53.586;10.610;2023-03-01T02:43:47;13.07;;;6.65;;
62149;SDS011;48134;53.586;10.610;2023-03-01T02:46:16;13.40;;;6.28;;
62149;SDS011;48134;53.586;10.610;2023-03-01T02:48:50;12.05;;;6.28;;
62149;SDS011;48134;53.586;10.610;2023-03-01T02:51:21;17.30;;;7.97;;
62149;SDS011;48134;53.586;10.610;2023-03-01T02:54:00;14.55;;;7.43;;
62149;SDS011;48134;53.586;10.610;2023-03-01T02:56:32;14.77;;;8.38;;
62149;SDS011;48134;53.586;10.610;2023-03-01T02:59:01;16.55;;;8.25;;
62149;SDS011;48134;53.586;10.610;2023-03-01T03:01:29;14.52;;;7.70;;
62149;SDS011;48134;53.586;10.610;2023-03-01T03:04:08;15.75;;;7.80;;
62149;SDS011;48134;53.586;10.610;2023-03-01T03:06:42;17.10;;;8.93;;
62149;SDS011;48134;53.586;10.610;2023-03-01T03:09:11;17.10;;;9.38;;
62149;SDS011;48134;53.586;10.610;2023-03-01T03:11:44;19.27;;;10.18;;
62149;SDS011;48134;53.586;10.610;2023-03-01T03:14:14;19.45;;;10.30;;
62149;SDS011;48134;53.586;10.610;2023-03-01T03:16:46;18.27;;;9.97;;
62149;SDS011;48134;53.586;10.610;2023-03-01T03:19:14;19.60;;;9.98;;
62149;SDS011;48134;53.586;10.610;2023-03-01T03:21:48;16.70;;;9.23;;
62149;SDS011;48134;53.586;10.610;2023-03-01T03:24:16;16.77;;;8.55;;
62149;SDS011;48134;53.586;10.610;2023-03-01T03:26:49;19.25;;;9.13;;
62149;SDS011;48134;53.586;10.610;2023-03-01T03:29:18;17.83;;;8.82;;
62149;SDS011;48134;53.586;10.610;2023-03-01T03:31:51;14.63;;;7.30;;
62149;SDS011;48134;53.586;10.610;2023-03-01T03:34:24;15.95;;;7.28;;
62149;SDS011;48134;53.586;10.610;2023-03-01T03:36:57;14.57;;;6.40;;
62149;SDS011;48134;53.586;10.610;2023-03-01T03:39:26;11.88;;;6.90;;
62149;SDS011;48134;53.586;10.610;2023-03-01T03:41:54;14.43;;;6.65;;
62149;SDS011;48134;53.586;10.610;2023-03-01T03:44:23;12.65;;;6.38;;
62149;SDS011;48134;53.586;10.610;2023-03-01T03:46:56;11.73;;;6.40;;
62149;SDS011;48134;53.586;10.610;2023-03-01T03:49:23;14.65;;;6.85;;
62149;SDS011;48134;53.586;10.610;2023-03-01T03:51:56;12.23;;;6.27;;
62149;SDS011;48134;53.586;10.610;2023-03-01T03:54:29;14.30;;;6.97;;
62149;SDS011;48134;53.586;10.610;2023-03-01T03:56:57;14.05;;;6.70;;
62149;SDS011;48134;53.586;10.610;2023-03-01T03:59:31;14.18;;;6.60;;
62149;SDS011;48134;53.586;10.610;2023-03-01T04:01:59;13.75;;;6.80;;
62149;SDS011;48134;53.586;10.610;2023-03-01T04:04:31;13.32;;;6.25;;
62149;SDS011;48134;53.586;10.610;2023-03-01T04:06:59;12.38;;;6.82;;
62149;SDS011;48134;53.586;10.610;2023-03-01T04:09:32;13.80;;;6.72;;
62149;SDS011;48134;53.586;10.610;2023-03-01T04:12:05;12.82;;;6.65;;
62149;SDS011;48134;53.586;10.610;2023-03-01T04:14:39;14.07;;;6.90;;
62149;SDS011;48134;53.586;10.610;2023-03-01T04:17:07;14.45;;;6.95;;
62149;SDS011;48134;53.586;10.610;2023-03-01T04:19:40;13.60;;;7.30;;
62149;SDS011;48134;53.586;10.610;2023-03-01T04:22:15;15.02;;;7.43;;
62149;SDS011;48134;53.586;10.610;2023-03-01T04:24:43;13.02;;;7.03;;
62149;SDS011;48134;53.586;10.610;2023-03-01T04:27:16;19.95;;;6.97;;
62149;SDS011;48134;53.586;10.610;2023-03-01T04:29:51;13.55;;;6.95;;
62149;SDS011;48134;53.586;10.610;2023-03-01T04:32:19;14.20;;;6.78;;
62149;SDS011;48134;53.586;10.610;2023-03-01T04:34:52;12.80;;;6.50;;
62149;SDS011;48134;53.586;10.610;2023-03-01T04:37:25;12.25;;;6.20;;
62149;SDS011;48134;53.586;10.610;2023-03-01T04:39:58;13.18;;;7.00;;
62149;SDS011;48134;53.586;10.610;2023-03-01T04:42:26;12.00;;;6.50;;
62149;SDS011;48134;53.586;10.610;2023-03-01T04:44:55;14.48;;;7.35;;
62149;SDS011;48134;53.586;10.610;2023-03-01T04:47:23;14.13;;;6.93;;
62149;SDS011;48134;53.586;10.610;2023-03-01T04:49:50;13.70;;;6.43;;
62149;SDS011;48134;53.586;10.610;2023-03-01T04:52:18;15.85;;;6.50;;
62149;SDS011;48134;53.586;10.610;2023-03-01T04:54:46;12.43;;;6.40;;
62149;SDS011;48134;53.586;10.610;2023-03-01T04:57:19;12.73;;;6.38;;
62149;SDS011;48134;53.586;10.610;2023-03-01T04:59:52;13.85;;;6.22;;
62149;SDS011;48134;53.586;10.610;2023-03-01T05:02:21;13.30;;;6.22;;
62149;SDS011;48134;53.586;10.610;2023-03-01T05:04:54;12.25;;;5.93;;
62149;SDS011;48134;53.586;10.610;2023-03-01T05:07:29;12.55;;;6.00;;
62149;SDS011;48134;53.586;10.610;2023-03-01T05:09:56;13.25;;;6.47;;
62149;SDS011;48134;53.586;10.610;2023-03-01T05:12:29;15.40;;;5.97;;
62149;SDS011;48134;53.586;10.610;2023-03-01T05:15:02;14.32;;;6.55;;
62149;SDS011;48134;53.586;10.610;2023-03-01T05:17:34;18.75;;;6.53;;
62149;SDS011;48134;53.586;10.610;2023-03-01T05:20:02;14.32;;;6.32;;
62149;SDS011;48134;53.586;10.610;2023-03-01T05:22:39;14.30;;;6.75;;
62149;SDS011;48134;53.586;10.610;2023-03-01T05:25:07;14.48;;;7.20;;
62149;SDS011;48134;53.586;10.610;2023-03-01T05:27:35;14.68;;;7.40;;
62149;SDS011;48134;53.586;10.610;2023-03-01T05:30:04;19.55;;;7.40;;
62149;SDS011;48134;53.586;10.610;2023-03-01T05:32:42;16.17;;;7.38;;
62149;SDS011;48134;53.586;10.610;2023-03-01T05:35:16;19.40;;;7.70;;
62149;SDS011;48134;53.586;10.610;2023-03-01T05:37:45;15.18;;;7.28;;
62149;SDS011;48134;53.586;10.610;2023-03-01T05:40:15;16.98;;;7.43;;
62149;SDS011;48134;53.586;10.610;2023-03-01T05:42:49;15.90;;;7.55;;
62149;SDS011;48134;53.586;10.610;2023-03-01T05:45:22;15.45;;;6.78;;
62149;SDS011;48134;53.586;10.610;2023-03-01T05:47:52;15.50;;;7.53;;
62149;SDS011;48134;53.586;10.610;2023-03-01T05:50:22;15.07;;;7.63;;
62149;SDS011;48134;53.586;10.610;2023-03-01T05:52:57;16.67;;;7.97;;
62149;SDS011;48134;53.586;10.610;2023-03-01T05:55:31;17.35;;;7.88;;
62149;SDS011;48134;53.586;10.610;2023-03-01T05:58:05;16.00;;;7.95;;
62149;SDS011;48134;53.586;10.610;2023-03-01T06:00:33;15.98;;;7.93;;
62149;SDS011;48134;53.586;10.610;2023-03-01T06:03:02;15.43;;;7.70;;
62149;SDS011;48134;53.586;10.610;2023-03-01T06:05:35;17.83;;;8.50;;
62149;SDS011;48134;53.586;10.610;2023-03-01T06:08:09;17.48;;;8.50;;
62149;SDS011;48134;53.586;10.610;2023-03-01T06:10:42;17.15;;;8.60;;
62149;SDS011;48134;53.586;10.610;2023-03-01T06:13:14;16.70;;;7.90;;
62149;SDS011;48134;53.586;10.610;2023-03-01T06:15:47;16.35;;;8.30;;
62149;SDS011;48134;53.586;10.610;2023-03-01T06:18:21;18.60;;;8.30;;
62149;SDS011;48134;53.586;10.610;2023-03-01T06:20:52;16.67;;;8.20;;
62149;SDS011;48134;53.586;10.610;2023-03-01T06:23:25;18.27;;;9.13;;
62149;SDS011;48134;53.586;10.610;2023-03-01T06:25:53;20.70;;;9.65;;
62149;SDS011;48134;53.586;10.610;2023-03-01T06:28:21;19.50;;;9.65;;
62149;SDS011;48134;53.586;10.610;2023-03-01T06:30:54;19.73;;;9.10;;
62149;SDS011;48134;53.586;10.610;2023-03-01T06:33:28;15.43;;;8.05;;
62149;SDS011;48134;53.586;10.610;2023-03-01T06:35:56;13.55;;;6.13;;
62149;SDS011;48134;53.586;10.610;2023-03-01T06:38:28;12.85;;;6.68;;
62149;SDS011;48134;53.586;10.610;2023-03-01T06:40:56;14.98;;;6.90;;
62149;SDS011;48134;53.586;10.610;2023-03-01T06:43:24;13.65;;;6.25;;
62149;SDS011;48134;53.586;10.610;2023-03-01T06:45:57;12.77;;;6.20;;
62149;SDS011;48134;53.586;10.610;2023-03-01T06:48:25;11.53;;;5.70;;
62149;SDS011;48134;53.586;10.610;2023-03-01T06:50:54;13.20;;;6.53;;
62149;SDS011;48134;53.586;10.610;2023-03-01T06:53:25;14.73;;;6.63;;
62149;SDS011;48134;53.586;10.610;2023-03-01T06:55:56;14.68;;;6.70;;
62149;SDS011;48134;53.586;10.610;2023-03-01T06:58:29;15.35;;;6.80;;
62149;SDS011;48134;53.586;10.610;2023-03-01T07:00:56;13.55;;;6.93;;
62149;SDS011;48134;53.586;10.610;2023-03-01T07:03:29;17.00;;;7.55;;
62149;SDS011;48134;53.586;10.610;2023-03-01T07:05:57;18.02;;;8.63;;
62149;SDS011;48134;53.586;10.610;2023-03-01T07:08:25;17.33;;;7.88;;
62149;SDS011;48134;53.586;10.610;2023-03-01T07:10:58;17.80;;;8.90;;
62149;SDS011;48134;53.586;10.610;2023-03-01T07:13:28;17.65;;;8.85;;
62149;SDS011;48134;53.586;10.610;2023-03-01T07:16:01;22.15;;;10.18;;
62149;SDS011;48134;53.586;10.610;2023-03-01T07:18:29;19.25;;;10.18;;
62149;SDS011;48134;53.586;10.610;2023-03-01T07:21:06;20.95;;;10.30;;
62149;SDS011;48134;53.586;10.610;2023-03-01T07:23:39;22.73;;;10.63;;
62149;SDS011;48134;53.586;10.610;2023-03-01T07:26:07;22.17;;;10.50;;
62149;SDS011;48134;53.586;10.610;2023-03-01T07:28:35;20.20;;;10.52;;
62149;SDS011;48134;53.586;10.610;2023-03-01T07:31:10;23.33;;;11.18;;
62149;SDS011;48134;53.586;10.610;2023-03-01T07:33:37;26.58;;;12.52;;
62149;SDS011;48134;53.586;10.610;2023-03-01T07:36:12;25.58;;;11.93;;
62149;SDS011;48134;53.586;10.610;2023-03-01T07:38:44;24.33;;;13.60;;
62149;SDS011;48134;53.586;10.610;2023-03-01T07:41:12;23.67;;;11.20;;
62149;SDS011;48134;53.586;10.610;2023-03-01T07:43:40;23.10;;;12.00;;
62149;SDS011;48134;53.586;10.610;2023-03-01T07:46:13;21.25;;;11.43;;
62149;SDS011;48134;53.586;10.610;2023-03-01T07:48:41;26.48;;;12.23;;
62149;SDS011;48134;53.586;10.610;2023-03-01T07:51:15;25.63;;;11.93;;
62149;SDS011;48134;53.586;10.610;2023-03-01T07:53:45;22.45;;;12.18;;
62149;SDS011;48134;53.586;10.610;2023-03-01T07:56:18;24.38;;;14.38;;
62149;SDS011;48134;53.586;10.610;2023-03-01T07:58:47;29.30;;;15.20;;
62149;SDS011;48134;53.586;10.610;2023-03-01T08:01:20;29.13;;;15.73;;
62149;SDS011;48134;53.586;10.610;2023-03-01T08:03:48;28.02;;;15.35;;
62149;SDS011;48134;53.586;10.610;2023-03-01T08:06:22;31.17;;;16.48;;
62149;SDS011;48134;53.586;10.610;2023-03-01T08:08:50;31.85;;;17.40;;
62149;SDS011;48134;53.586;10.610;2023-03-01T08:11:23;25.67;;;13.20;;
62149;SDS011;48134;53.586;10.610;2023-03-01T08:13:51;26.27;;;12.80;;
62149;SDS011;48134;53.586;10.610;2023-03-01T08:16:23;25.70;;;13.13;;
62149;SDS011;48134;53.586;10.610;2023-03-01T08:18:56;30.83;;;12.77;;
62149;SDS011;48134;53.586;10.610;2023-03-01T08:21:29;24.30;;;11.88;;
62149;SDS011;48134;53.586;10.610;2023-03-01T08:23:57;33.22;;;16.98;;
62149;SDS011;48134;53.586;10.610;2023-03-01T08:26:24;37.22;;;19.17;;
62149;SDS011;48134;53.586;10.610;2023-03-01T08:28:52;35.88;;;17.48;;
62149;SDS011;48134;53.586;10.610;2023-03-01T08:31:21;27.75;;;13.75;;
62149;SDS011;48134;53.586;10.610;2023-03-01T08:33:50;28.40;;;12.80;;
62149;SDS011;48134;53.586;10.610;2023-03-01T08:36:21;35.13;;;15.40;;
62149;SDS011;48134;53.586;10.610;2023-03-01T08:38:55;23.60;;;12.70;;
62149;SDS011;48134;53.586;10.610;2023-03-01T08:41:28;24.67;;;13.55;;
62149;SDS011;48134;53.586;10.610;2023-03-01T08:44:01;23.60;;;13.45;;
62149;SDS011;48134;53.586;10.610;2023-03-01T08:46:35;29.55;;;14.82;;
62149;SDS011;48134;53.586;10.610;2023-03-01T08:49:03;26.20;;;13.43;;
62149;SDS011;48134;53.586;10.610;2023-03-01T08:51:36;25.75;;;14.32;;
62149;SDS011;48134;53.586;10.610;2023-03-01T08:54:11;24.65;;;12.95;;
62149;SDS011;48134;53.586;10.610;2023-03-01T08:56:39;21.63;;;12.20;;
62149;SDS011;48134;53.586;10.610;2023-03-01T08:59:12;24.20;;;12.68;;
62149;SDS011;48134;53.586;10.610;2023-03-01T09:01:45;23.15;;;12.80;;
62149;SDS011;48134;53.586;10.610;2023-03-01T09:04:14;24.13;;;12.48;;
62149;SDS011;48134;53.586;10.610;2023-03-01T09:06:47;25.38;;;12.43;;
62149;SDS011;48134;53.586;10.610;2023-03-01T09:09:16;24.35;;;12.93;;
62149;SDS011;48134;53.586;10.610;2023-03-01T09:11:44;23.73;;;12.35;;
62149;SDS011;48134;53.586;10.610;2023-03-01T09:14:13;26.70;;;12.40;;
62149;SDS011;48134;53.586;10.610;2023-03-01T09:16:46;24.00;;;12.55;;
62149;SDS011;48134;53.586;10.610;2023-03-01T09:19:14;29.67;;;12.85;;
62149;SDS011;48134;53.586;10.610;2023-03-01T09:21:46;25.27;;;12.85;;
62149;SDS011;48134;53.586;10.610;2023-03-01T09:24:25;25.92;;;13.18;;
62149;SDS011;48134;53.586;10.610;2023-03-01T09:26:58;23.98;;;12.75;;
62149;SDS011;48134;53.586;10.610;2023-03-01T09:29:31;23.38;;;12.98;;
62149;SDS011;48134;53.586;10.610;2023-03-01T09:32:04;24.60;;;13.45;;
62149;SDS011;48134;53.586;10.610;2023-03-01T09:34:36;22.65;;;12.88;;
62149;SDS011;48134;53.586;10.610;2023-03-01T09:37:24;25.58;;;13.38;;
62149;SDS011;48134;53.586;10.610;2023-03-01T09:39:53;25.23;;;13.50;;
62149;SDS011;48134;53.586;10.610;2023-03-01T09:42:21;22.23;;;13.15;;
62149;SDS011;48134;53.586;10.610;2023-03-01T09:44:54;26.27;;;14.70;;
62149;SDS011;48134;53.586;10.610;2023-03-01T09:47:30;26.40;;;12.98;;
62149;SDS011;48134;53.586;10.610;2023-03-01T09:50:04;24.00;;;14.02;;
62149;SDS011;48134;53.586;10.610;2023-03-01T09:52:36;25.63;;;13.43;;
62149;SDS011;48134;53.586;10.610;2023-03-01T09:55:10;25.58;;;13.45;;
62149;SDS011;48134;53.586;10.610;2023-03-01T09:57:41;23.42;;;12.65;;
62149;SDS011;48134;53.586;10.610;2023-03-01T10:00:16;25.38;;;13.23;;
62149;SDS011;48134;53.586;10.610;2023-03-01T10:02:51;24.77;;;13.10;;
62149;SDS011;48134;53.586;10.610;2023-03-01T10:05:28;23.60;;;12.98;;
62149;SDS011;48134;53.586;10.610;2023-03-01T10:08:24;22.65;;;12.95;;
62149;SDS011;48134;53.586;10.610;2023-03-01T10:10:54;23.77;;;12.73;;
62149;SDS011;48134;53.586;10.610;2023-03-01T10:13:28;22.45;;;12.88;;
62149;SDS011;48134;53.586;10.610;2023-03-01T10:15:57;19.90;;;10.57;;
62149;SDS011;48134;53.586;10.610;2023-03-01T10:18:33;20.48;;;10.15;;
62149;SDS011;48134;53.586;10.610;2023-03-01T10:21:07;19.77;;;10.57;;
62149;SDS011;48134;53.586;10.610;2023-03-01T10:23:42;23.00;;;11.05;;
62149;SDS011;48134;53.586;10.610;2023-03-01T10:26:38;20.42;;;10.25;;
62149;SDS011;48134;53.586;10.610;2023-03-01T10:29:08;19.17;;;10.20;;
62149;SDS011;48134;53.586;10.610;2023-03-01T10:31:40;17.90;;;10.65;;
62149;SDS011;48134;53.586;10.610;2023-03-01T10:34:15;18.38;;;9.88;;
62149;SDS011;48134;53.586;10.610;2023-03-01T10:36:50;16.08;;;9.35;;
62149;SDS011;48134;53.586;10.610;2023-03-01T10:39:23;16.98;;;9.05;;
62149;SDS011;48134;53.586;10.610;2023-03-01T10:42:01;14.73;;;8.35;;
62149;SDS011;48134;53.586;10.610;2023-03-01T10:44:38;17.40;;;9.38;;
62149;SDS011;48134;53.586;10.610;2023-03-01T10:47:12;15.63;;;9.43;;
62149;SDS011;48134;53.586;10.610;2023-03-01T10:52:37;18.48;;;8.50;;
62149;SDS011;48134;53.586;10.610;2023-03-01T10:55:22;16.13;;;9.70;;
62149;SDS011;48134;53.586;10.610;2023-03-01T10:57:52;17.38;;;9.35;;
62149;SDS011;48134;53.586;10.610;2023-03-01T11:00:45;16.92;;;8.90;;
62149;SDS011;48134;53.586;10.610;2023-03-01T11:03:19;18.80;;;9.70;;
62149;SDS011;48134;53.586;10.610;2023-03-01T11:05:56;17.25;;;10.00;;
62149;SDS011;48134;53.586;10.610;2023-03-01T11:08:37;16.25;;;8.73;;
62149;SDS011;48134;53.586;10.610;2023-03-01T11:11:19;15.32;;;8.70;;
62149;SDS011;48134;53.586;10.610;2023-03-01T11:13:54;20.42;;;9.98;;
62149;SDS011;48134;53.586;10.610;2023-03-01T11:16:31;16.30;;;8.70;;
62149;SDS011;48134;53.586;10.610;2023-03-01T11:19:14;16.67;;;8.70;;
62149;SDS011;48134;53.586;10.610;2023-03-01T11:21:42;15.93;;;8.60;;
62149;SDS011;48134;53.586;10.610;2023-03-01T11:24:12;17.80;;;8.95;;
62149;SDS011;48134;53.586;10.610;2023-03-01T11:26:41;17.25;;;9.40;;
62149;SDS011;48134;53.586;10.610;2023-03-01T11:29:18;17.03;;;8.70;;
62149;SDS011;48134;53.586;10.610;2023-03-01T11:31:49;16.92;;;9.50;;
62149;SDS011;48134;53.586;10.610;2023-03-01T11:34:23;17.38;;;9.63;;
62149;SDS011;48134;53.586;10.610;2023-03-01T11:36:56;15.55;;;8.50;;
62149;SDS011;48134;53.586;10.610;2023-03-01T11:39:32;14.75;;;8.88;;
62149;SDS011;48134;53.586;10.610;2023-03-01T11:42:03;15.90;;;8.07;;
62149;SDS011;48134;53.586;10.610;2023-03-01T11:44:35;12.60;;;6.55;;
62149;SDS011;48134;53.586;10.610;2023-03-01T11:47:12;12.70;;;6.60;;
62149;SDS011;48134;53.586;10.610;2023-03-01T11:49:49;13.43;;;6.72;;
62149;SDS011;48134;53.586;10.610;2023-03-01T11:52:23;13.60;;;6.65;;
62149;SDS011;48134;53.586;10.610;2023-03-01T11:54:56;12.70;;;7.10;;
62149;SDS011;48134;53.586;10.610;2023-03-01T11:57:40;13.25;;;6.45;;
62149;SDS011;48134;53.586;10.610;2023-03-01T12:00:27;10.07;;;5.10;;
62149;SDS011;48134;53.586;10.610;2023-03-01T12:05:55;13.80;;;6.05;;
62149;SDS011;48134;53.586;10.610;2023-03-01T12:08:32;12.80;;;6.00;;
62149;SDS011;48134;53.586;10.610;2023-03-01T12:11:03;11.85;;;5.85;;
62149;SDS011;48134;53.586;10.610;2023-03-01T12:13:44;11.27;;;5.30;;
62149;SDS011;48134;53.586;10.610;2023-03-01T12:16:22;9.65;;;4.78;;
62149;SDS011;48134;53.586;10.610;2023-03-01T12:19:14;10.95;;;5.72;;
62149;SDS011;48134;53.586;10.610;2023-03-01T12:21:55;13.43;;;6.93;;
62149;SDS011;48134;53.586;10.610;2023-03-01T12:24:39;16.85;;;7.22;;
62149;SDS011;48134;53.586;10.610;2023-03-01T12:29:59;13.38;;;6.40;;
62149;SDS011;48134;53.586;10.610;2023-03-01T12:32:36;10.77;;;5.20;;
62149;SDS011;48134;53.586;10.610;2023-03-01T12:35:34;11.07;;;5.30;;
62149;SDS011;48134;53.586;10.610;2023-03-01T12:38:10;10.88;;;5.45;;
62149;SDS011;48134;53.586;10.610;2023-03-01T12:40:44;10.45;;;4.88;;
62149;SDS011;48134;53.586;10.610;2023-03-01T12:43:22;13.20;;;5.82;;
62149;SDS011;48134;53.586;10.610;2023-03-01T12:46:00;10.77;;;4.72;;
62149;SDS011;48134;53.586;10.610;2023-03-01T12:48:40;10.52;;;5.43;;
62149;SDS011;48134;53.586;10.610;2023-03-01T12:51:17;9.80;;;5.13;;
62149;SDS011;48134;53.586;10.610;2023-03-01T12:53:52;11.80;;;5.93;;
62149;SDS011;48134;53.586;10.610;2023-03-01T12:56:21;10.50;;;4.95;;
62149;SDS011;48134;53.586;10.610;2023-03-01T12:58:57;9.38;;;4.63;;
62149;SDS011;48134;53.586;10.610;2023-03-01T13:01:36;7.97;;;4.28;;
62149;SDS011;48134;53.586;10.610;2023-03-01T13:04:14;10.55;;;5.53;;
62149;SDS011;48134;53.586;10.610;2023-03-01T13:06:53;9.55;;;4.68;;
62149;SDS011;48134;53.586;10.610;2023-03-01T13:09:24;9.47;;;4.77;;
62149;SDS011;48134;53.586;10.610;2023-03-01T13:12:01;10.25;;;4.70;;
62149;SDS011;48134;53.586;10.610;2023-03-01T13:14:35;8.48;;;4.13;;
62149;SDS011;48134;53.586;10.610;2023-03-01T13:17:03;8.85;;;3.90;;
62149;SDS011;48134;53.586;10.610;2023-03-01T13:19:37;7.63;;;3.72;;
62149;SDS011;48134;53.586;10.610;2023-03-01T13:24:50;7.90;;;3.15;;
62149;SDS011;48134;53.586;10.610;2023-03-01T13:27:33;6.00;;;2.30;;
62149;SDS011;48134;53.586;10.610;2023-03-01T13:30:12;6.20;;;2.50;;
62149;SDS011;48134;53.586;10.610;2023-03-01T13:35:52;7.72;;;3.00;;
62149;SDS011;48134;53.586;10.610;2023-03-01T13:38:44;7.10;;;3.20;;
62149;SDS011;48134;53.586;10.610;2023-03-01T13:41:24;10.07;;;3.47;;
62149;SDS011;48134;53.586;10.610;2023-03-01T13:44:13;7.72;;;3.50;;
62149;SDS011;48134;53.586;10.610;2023-03-01T13:46:48;7.60;;;3.50;;
62149;SDS011;48134;53.586;10.610;2023-03-01T13:49:22;7.78;;;3.50;;
62149;SDS011;48134;53.586;10.610;2023-03-01T13:51:56;8.35;;;3.47;;
62149;SDS011;48134;53.586;10.610;2023-03-01T13:54:29;8.20;;;3.30;;
62149;SDS011;48134;53.586;10.610;2023-03-01T13:57:03;7.82;;;3.20;;
62149;SDS011;48134;53.586;10.610;2023-03-01T13:59:32;6.47;;;2.78;;
62149;SDS011;48134;53.586;10.610;2023-03-01T14:02:00;9.38;;;3.55;;
62149;SDS011;48134;53.586;10.610;2023-03-01T14:04:33;9.35;;;3.78;;
62149;SDS011;48134;53.586;10.610;2023-03-01T14:07:11;7.13;;;3.30;;
62149;SDS011;48134;53.586;10.610;2023-03-01T14:09:39;7.63;;;3.20;;
62149;SDS011;48134;53.586;10.610;2023-03-01T14:12:20;7.18;;;3.38;;
62149;SDS011;48134;53.586;10.610;2023-03-01T14:15:00;6.77;;;3.03;;
62149;SDS011;48134;53.586;10.610;2023-03-01T14:17:42;6.20;;;3.00;;
62149;SDS011;48134;53.586;10.610;2023-03-01T14:20:12;8.02;;;3.47;;
62149;SDS011;48134;53.586;10.610;2023-03-01T14:22:47;7.13;;;3.28;;
62149;SDS011;48134;53.586;10.610;2023-03-01T14:25:21;7.20;;;3.50;;
62149;SDS011;48134;53.586;10.610;2023-03-01T14:28:00;6.73;;;3.10;;
62149;SDS011;48134;53.586;10.610;2023-03-01T14:30:31;10.85;;;3.65;;
62149;SDS011;48134;53.586;10.610;2023-03-01T14:33:05;7.47;;;3.35;;
62149;SDS011;48134;53.586;10.610;2023-03-01T14:35:34;9.05;;;3.70;;
62149;SDS011;48134;53.586;10.610;2023-03-01T14:38:19;7.85;;;3.33;;
62149;SDS011;48134;53.586;10.610;2023-03-01T14:40:53;6.97;;;3.22;;
62149;SDS011;48134;53.586;10.610;2023-03-01T14:43:23;8.07;;;3.75;;
62149;SDS011;48134;53.586;10.610;2023-03-01T14:45:53;8.32;;;2.92;;
62149;SDS011;48134;53.586;10.610;2023-03-01T14:48:26;6.55;;;2.90;;
62149;SDS011;48134;53.586;10.610;2023-03-01T14:50:55;6.78;;;3.08;;
62149;SDS011;48134;53.586;10.610;2023-03-01T14:53:24;5.88;;;2.70;;
62149;SDS011;48134;53.586;10.610;2023-03-01T14:55:53;5.70;;;2.90;;
62149;SDS011;48134;53.586;10.610;2023-03-01T14:58:22;6.60;;;2.80;;
62149;SDS011;48134;53.586;10.610;2023-03-01T15:00:57;6.13;;;2.80;;
62149;SDS011;48134;53.586;10.610;2023-03-01T15:03:31;7.78;;;2.70;;
62149;SDS011;48134;53.586;10.610;2023-03-01T15:06:06;5.47;;;2.30;;
62149;SDS011;48134;53.586;10.610;2023-03-01T15:08:41;4.97;;;2.45;;
62149;SDS011;48134;53.586;10.610;2023-03-01T15:11:17;4.45;;;2.10;;